Time;durP1;ratioP1;P1;durP2;ratioP2;P2;SDS_P1;SDS_P2;PMS_P1;PMS_P2;Temp;Humidity;BMP_temperature;BMP_pressure;BME280_temperature;BME280_humidity;BME280_pressure;Samples;Min_cycle;Max_cycle;Signal;HPM_P1;HPM_P2
2023/04/24 00:00:14;;;;;;;1.30;1.10;;;;;;;14.69;46.48;99464.41;674770;29;1427;-81
2023/04/24 00:00:37;;;;;;;1.38;1.10;;;;;;;14.75;46.40;99501.13;682739;29;1228;-82
2023/04/24 00:01:00;;;;;;;1.10;1.00;;;;;;;14.74;46.11;99465.25;687968;28;1358;-82
2023/04/24 00:01:21;;;;;;;1.10;1.00;;;;;;;14.86;45.89;99468.66;685463;28;1148;-80
2023/04/24 00:01:42;;;;;;;1.10;1.00;;;;;;;14.88;45.94;99482.63;685540;28;1045;-81
2023/04/24 00:02:03;;;;;;;1.30;1.10;;;;;;;14.79;45.92;99463.44;682588;29;1263;-81
2023/04/24 00:02:23;;;;;;;1.30;1.00;;;;;;;14.80;45.71;99449.44;680205;29;1107;-80
2023/04/24 00:02:46;;;;;;;1.30;1.00;;;;;;;14.71;46.04;99457.41;682810;29;816;-81
2023/04/24 00:03:07;;;;;;;1.10;1.00;;;;;;;14.85;46.11;99466.88;682695;28;1124;-81
2023/04/24 00:03:28;;;;;;;1.27;1.17;;;;;;;14.85;45.86;99464.25;680094;29;1978;-81
2023/04/24 00:03:49;;;;;;;1.20;1.10;;;;;;;14.80;45.90;99459.03;680262;29;1032;-81
2023/04/24 00:04:10;;;;;;;1.20;1.10;;;;;;;14.77;45.99;99454.69;680043;29;1149;-80
2023/04/24 00:04:31;;;;;;;1.00;0.90;;;;;;;14.73;46.01;99453.00;680130;29;1308;-79
2023/04/24 00:04:52;;;;;;;1.17;1.00;;;;;;;14.83;45.96;99463.41;677516;29;1151;-80
2023/04/24 00:05:14;;;;;;;1.48;1.00;;;;;;;14.86;45.81;99458.13;680104;29;1181;-81
2023/04/24 00:05:35;;;;;;;1.48;1.10;;;;;;;14.77;45.87;99461.72;680150;29;1024;-80
2023/04/24 00:05:56;;;;;;;1.48;1.20;;;;;;;14.86;46.09;99458.13;680066;29;1121;-81
2023/04/24 00:06:17;;;;;;;1.30;1.20;;;;;;;14.71;46.13;99446.91;677566;29;1158;-80
2023/04/24 00:06:38;;;;;;;1.80;1.00;;;;;;;14.70;46.36;99450.41;674905;29;1309;-81
2023/04/24 00:06:59;;;;;;;1.70;1.08;;;;;;;14.76;46.39;99462.63;679749;29;1292;-81
2023/04/24 00:07:20;;;;;;;1.73;1.10;;;;;;;14.77;46.18;99462.56;680191;29;1080;-79
2023/04/24 00:07:42;;;;;;;1.77;1.20;;;;;;;14.80;46.13;99474.81;682905;29;831;-80
2023/04/24 00:08:02;;;;;;;1.90;1.20;;;;;;;14.70;46.25;99455.66;682591;29;1250;-80
2023/04/24 00:08:23;;;;;;;1.75;1.15;;;;;;;14.74;46.36;99464.38;680160;29;1259;-80
2023/04/24 00:08:44;;;;;;;1.10;1.00;;;;;;;14.70;46.25;99471.44;677655;29;837;-82
2023/04/24 00:09:04;;;;;;;1.10;1.00;;;;;;;14.73;46.30;99505.53;677408;29;1155;-82
2023/04/24 00:09:26;;;;;;;1.17;1.07;;;;;;;14.77;46.39;99470.44;680213;29;1135;-80
2023/04/24 00:09:52;;;;;;;1.30;1.20;;;;;;;14.82;45.95;99466.91;685555;28;1303;-80
2023/04/24 00:10:12;;;;;;;1.20;1.10;;;;;;;14.78;46.05;99466.09;682618;28;1063;-82
2023/04/24 00:10:33;;;;;;;1.20;1.10;;;;;;;14.87;46.06;99475.63;682789;28;1157;-80
2023/04/24 00:10:54;;;;;;;3.75;1.20;;;;;;;14.86;45.97;99464.25;682776;28;1078;-81
2023/04/24 00:11:14;;;;;;;3.60;1.20;;;;;;;14.89;46.04;99461.56;677519;29;1175;-81
2023/04/24 00:11:36;;;;;;;3.05;1.35;;;;;;;14.76;46.16;99445.09;680295;29;1034;-81
2023/04/24 00:11:56;;;;;;;1.45;1.25;;;;;;;14.91;46.18;99472.06;680041;29;1131;-81
2023/04/24 00:12:17;;;;;;;1.77;1.27;;;;;;;14.85;46.00;99478.25;680059;29;1254;-81
2023/04/24 00:12:38;;;;;;;1.70;1.20;;;;;;;14.94;46.13;99479.94;677547;29;1222;-81
2023/04/24 00:13:00;;;;;;;1.20;1.10;;;;;;;14.91;46.06;99469.44;674739;29;1357;-82
2023/04/24 00:13:20;;;;;;;1.15;1.05;;;;;;;14.94;46.08;99469.44;680196;29;1086;-81
2023/04/24 00:13:41;;;;;;;1.20;1.10;;;;;;;14.86;45.98;99460.75;682873;29;1170;-81
2023/04/24 00:14:02;;;;;;;1.30;1.20;;;;;;;14.93;46.15;99465.03;682584;29;1263;-81
2023/04/24 00:14:22;;;;;;;1.88;1.30;;;;;;;14.91;46.46;99469.44;682954;29;1138;-81
2023/04/24 00:14:43;;;;;;;2.45;1.20;;;;;;;14.84;46.12;99471.28;677645;29;798;-80
2023/04/24 00:15:05;;;;;;;2.70;1.20;;;;;;;14.82;46.16;99446.78;677400;29;1196;-81
2023/04/24 00:15:26;;;;;;;1.90;1.20;;;;;;;14.86;46.35;99466.03;680227;29;974;-80
2023/04/24 00:15:47;;;;;;;1.98;1.35;;;;;;;14.94;46.29;99474.69;685520;28;1474;-81
2023/04/24 00:16:08;;;;;;;1.83;1.33;;;;;;;14.86;46.38;99455.50;682594;28;1281;-80
2023/04/24 00:16:28;;;;;;;1.73;1.37;;;;;;;14.89;46.41;99463.34;682784;28;1095;-80
2023/04/24 00:16:49;;;;;;;1.30;1.20;;;;;;;14.84;46.38;99458.16;682614;29;1146;-81
2023/04/24 00:17:09;;;;;;;1.95;1.20;;;;;;;14.86;46.62;99464.25;685334;28;1187;-81
2023/04/24 00:17:30;;;;;;;1.90;1.20;;;;;;;14.92;46.68;99469.44;680161;29;1177;-80
2023/04/24 00:17:53;;;;;;;1.80;1.00;;;;;;;14.90;46.50;99465.09;682935;28;1226;-80
2023/04/24 00:18:13;;;;;;;1.20;1.10;;;;;;;14.89;46.60;99474.69;680224;29;1215;-79
2023/04/24 00:18:34;;;;;;;1.30;1.20;;;;;;;14.93;46.48;99465.03;682906;28;1130;-80
2023/04/24 00:18:54;;;;;;;1.60;1.40;;;;;;;14.88;46.58;99464.25;685505;28;1471;-80
2023/04/24 00:19:16;;;;;;;2.00;1.30;;;;;;;14.88;46.55;99466.88;685618;28;1301;-80
2023/04/24 00:19:36;;;;;;;2.00;1.30;;;;;;;14.85;46.82;99466.88;680219;29;1428;-80
2023/04/24 00:20:01;;;;;;;2.38;1.10;;;;;;;14.89;46.82;99469.44;677589;29;1114;-80
2023/04/24 00:20:22;;;;;;;2.05;1.20;;;;;;;14.80;47.08;99459.94;677910;29;1030;-81
2023/04/24 00:20:43;;;;;;;1.90;1.20;;;;;;;14.76;46.99;99463.47;675145;29;1060;-80
2023/04/24 00:21:04;;;;;;;1.40;1.30;;;;;;;14.85;47.19;99473.00;677476;29;1240;-80
2023/04/24 00:21:26;;;;;;;2.50;1.30;;;;;;;14.84;47.16;99481.78;680359;29;1116;-80
2023/04/24 00:21:49;;;;;;;2.63;1.30;;;;;;;14.86;47.08;99480.00;682812;28;1373;-80
2023/04/24 00:22:10;;;;;;;1.65;1.13;;;;;;;14.77;47.07;99457.31;679891;29;968;-80
2023/04/24 00:22:31;;;;;;;1.90;1.30;;;;;;;14.80;47.00;99454.69;674895;29;1179;-81
2023/04/24 00:22:52;;;;;;;1.90;1.40;;;;;;;14.85;47.04;99459.00;682958;29;1155;-81
2023/04/24 00:23:12;;;;;;;1.83;1.30;;;;;;;14.89;46.99;99471.22;682636;29;1477;-80
2023/04/24 00:23:33;;;;;;;2.50;1.10;;;;;;;14.79;47.25;99463.44;682659;28;1921;-80
2023/04/24 00:23:54;;;;;;;2.40;1.10;;;;;;;14.82;47.06;99461.66;682794;28;1181;-80
2023/04/24 00:24:15;;;;;;;1.63;1.10;;;;;;;14.79;47.07;99458.19;682884;28;1199;-80
2023/04/24 00:24:35;;;;;;;1.40;1.10;;;;;;;14.83;47.40;99458.16;685492;28;976;-81
2023/04/24 00:24:56;;;;;;;1.40;1.10;;;;;;;14.85;47.39;99456.38;682732;28;1256;-80
2023/04/24 00:25:17;;;;;;;1.20;1.02;;;;;;;14.77;47.22;99453.84;685528;28;966;-80
2023/04/24 00:25:38;;;;;;;1.15;1.05;;;;;;;14.80;47.24;99472.19;680087;29;1401;-80
2023/04/24 00:25:59;;;;;;;1.20;1.10;;;;;;;14.77;47.29;99464.34;677426;29;1013;-81
2023/04/24 00:26:19;;;;;;;1.60;1.20;;;;;;;14.70;47.29;99457.41;680168;29;1245;-80
2023/04/24 00:26:40;;;;;;;1.67;1.30;;;;;;;14.69;47.49;99459.16;680097;29;1216;-80
2023/04/24 00:27:02;;;;;;;1.60;1.40;;;;;;;14.67;47.54;99463.56;679807;29;1046;-81
2023/04/24 00:27:23;;;;;;;1.50;1.40;;;;;;;14.70;47.73;99467.91;680169;29;1235;-80
2023/04/24 00:27:44;;;;;;;1.88;1.50;;;;;;;14.73;47.61;99462.63;680332;29;851;-81
2023/04/24 00:28:05;;;;;;;2.10;1.60;;;;;;;14.74;47.55;99467.88;677355;29;1070;-81
2023/04/24 00:28:25;;;;;;;1.90;1.48;;;;;;;14.74;47.47;99473.13;680244;29;1221;-80
2023/04/24 00:28:46;;;;;;;1.40;1.20;;;;;;;14.76;47.62;99466.09;682842;28;1271;-80
2023/04/24 00:29:06;;;;;;;1.10;1.00;;;;;;;14.69;47.50;99453.91;682524;29;1190;-80
2023/04/24 00:29:28;;;;;;;1.30;1.20;;;;;;;14.72;47.45;99459.16;685456;28;1335;-80
2023/04/24 00:29:49;;;;;;;1.52;1.30;;;;;;;14.71;47.63;99470.53;680219;29;1033;-80
2023/04/24 00:30:10;;;;;;;1.80;1.25;;;;;;;14.66;47.47;99461.81;682696;28;1159;-81
2023/04/24 00:30:31;;;;;;;1.35;1.05;;;;;;;14.64;47.75;99463.59;685562;28;1342;-80
2023/04/24 00:30:52;;;;;;;1.65;1.10;;;;;;;14.60;47.76;99462.75;688018;28;1605;-81
2023/04/24 00:31:13;;;;;;;1.60;1.20;;;;;;;14.50;47.78;99455.88;677410;29;1256;-81
2023/04/24 00:31:34;;;;;;;1.63;1.30;;;;;;;14.56;47.99;99465.44;682844;28;1092;-80
2023/04/24 00:31:55;;;;;;;1.35;1.25;;;;;;;14.52;48.12;99470.69;685268;28;1315;-79
2023/04/24 00:32:17;;;;;;;1.40;1.30;;;;;;;14.41;48.34;99451.56;685478;28;1314;-80
2023/04/24 00:32:37;;;;;;;1.83;1.30;;;;;;;14.47;48.57;99463.75;682867;28;1226;-80
2023/04/24 00:32:58;;;;;;;1.80;1.20;;;;;;;14.58;48.18;99474.16;682591;29;1045;-80
2023/04/24 00:33:19;;;;;;;1.70;1.20;;;;;;;14.45;48.27;99469.00;680260;29;1202;-80
2023/04/24 00:33:40;;;;;;;2.15;1.15;;;;;;;14.39;48.42;99453.34;682713;29;1315;-80
2023/04/24 00:34:02;;;;;;;2.10;1.10;;;;;;;14.42;48.50;99461.16;679811;29;1222;-80
2023/04/24 00:34:23;;;;;;;2.10;1.15;;;;;;;14.40;48.59;99465.56;680227;28;1334;-81
2023/04/24 00:34:43;;;;;;;1.20;1.10;;;;;;;14.47;48.47;99477.75;682765;28;1332;-81
2023/04/24 00:35:05;;;;;;;1.20;1.10;;;;;;;14.39;48.52;99464.69;682354;29;1149;-80
2023/04/24 00:35:26;;;;;;;1.30;1.20;;;;;;;14.38;48.75;99462.94;685921;28;1098;-80
2023/04/24 00:35:47;;;;;;;1.40;1.30;;;;;;;14.40;48.82;99473.44;680821;29;729;-81
2023/04/24 00:36:07;;;;;;;1.50;1.40;;;;;;;14.32;48.97;99478.75;680443;29;1340;-81
2023/04/24 00:36:28;;;;;;;1.48;1.38;;;;;;;14.37;48.88;99462.94;680592;29;1003;-81
2023/04/24 00:36:51;;;;;;;1.40;1.30;;;;;;;14.38;48.80;99462.09;683028;28;1114;-80
2023/04/24 00:37:12;;;;;;;1.70;1.20;;;;;;;14.35;48.77;99467.34;680462;29;1264;-80
2023/04/24 00:37:33;;;;;;;1.70;1.20;;;;;;;14.35;48.87;99469.97;688572;28;1095;-80
2023/04/24 00:37:53;;;;;;;1.63;1.17;;;;;;;14.31;48.68;99465.66;683186;28;1065;-80
2023/04/24 00:38:14;;;;;;;1.20;1.10;;;;;;;14.24;48.83;99452.59;685939;28;1147;-80
2023/04/24 00:38:36;;;;;;;1.40;1.30;;;;;;;14.21;48.96;99444.72;683265;29;1236;-80
2023/04/24 00:38:58;;;;;;;1.33;1.23;;;;;;;14.23;49.31;99458.72;683198;29;1136;-80
2023/04/24 00:39:19;;;;;;;1.40;1.23;;;;;;;14.17;49.10;99450.88;688555;28;1004;-80
2023/04/24 00:39:40;;;;;;;2.00;1.20;;;;;;;14.27;49.22;99466.56;680660;29;812;-79
2023/04/24 00:40:00;;;;;;;2.13;1.30;;;;;;;14.25;49.41;99463.94;680432;29;1048;-80
2023/04/24 00:40:21;;;;;;;3.00;1.40;;;;;;;14.30;49.20;99463.88;678047;29;1192;-80
2023/04/24 00:40:42;;;;;;;2.70;1.40;;;;;;;14.19;49.33;99457.00;680670;28;1120;-80
2023/04/24 00:41:02;;;;;;;2.15;1.30;;;;;;;14.22;49.35;99456.09;680362;29;1140;-80
2023/04/24 00:41:25;;;;;;;1.75;1.30;;;;;;;14.28;49.41;99471.78;680437;29;1128;-80
2023/04/24 00:41:46;;;;;;;1.30;1.20;;;;;;;14.22;49.33;99453.47;680689;29;1506;-79
2023/04/24 00:42:06;;;;;;;1.67;1.10;;;;;;;14.31;49.33;99473.53;680545;29;1169;-80
2023/04/24 00:42:27;;;;;;;1.70;1.17;;;;;;;14.30;49.36;99472.66;677938;29;1261;-80
2023/04/24 00:42:48;;;;;;;2.67;1.20;;;;;;;14.24;49.38;99457.84;683274;28;1156;-80
2023/04/24 00:43:09;;;;;;;2.20;1.30;;;;;;;14.20;49.32;99448.22;680433;29;1191;-80
2023/04/24 00:43:30;;;;;;;1.83;1.30;;;;;;;14.25;49.52;99456.06;683226;28;1907;-80
2023/04/24 00:43:52;;;;;;;1.50;1.20;;;;;;;14.24;49.52;99452.59;685926;28;1098;-80
2023/04/24 00:44:12;;;;;;;1.80;1.40;;;;;;;14.28;49.46;99463.03;685878;28;1134;-80
2023/04/24 00:44:34;;;;;;;1.60;1.30;;;;;;;14.23;49.54;99458.72;680642;29;1014;-79
2023/04/24 00:44:56;;;;;;;1.42;1.25;;;;;;;14.33;49.34;99479.63;675271;29;1094;-79
2023/04/24 00:45:17;;;;;;;1.40;1.30;;;;;;;14.25;49.55;99456.06;678000;29;1083;-81
2023/04/24 00:45:38;;;;;;;1.80;1.30;;;;;;;14.28;49.24;99460.41;680489;29;1218;-80
2023/04/24 00:46:01;;;;;;;2.28;1.40;;;;;;;14.34;49.17;99463.00;677780;29;1250;-79
2023/04/24 00:46:22;;;;;;;2.35;1.40;;;;;;;14.31;49.22;99460.41;675410;29;1380;-79
2023/04/24 00:46:43;;;;;;;2.40;1.40;;;;;;;14.29;49.31;99455.16;680636;29;832;-79
2023/04/24 00:47:04;;;;;;;2.03;1.40;;;;;;;14.27;49.53;99458.69;680426;29;1098;-79
2023/04/24 00:47:25;;;;;;;1.90;1.40;;;;;;;14.20;49.38;99450.00;680724;29;1202;-79
2023/04/24 00:47:46;;;;;;;1.50;1.40;;;;;;;14.15;49.26;99441.28;685982;28;1117;-78
2023/04/24 00:48:07;;;;;;;1.50;1.40;;;;;;;14.19;49.47;99453.50;680260;29;1088;-79
2023/04/24 00:48:29;;;;;;;1.50;1.40;;;;;;;14.20;49.53;99460.50;680588;29;1265;-79
2023/04/24 00:48:50;;;;;;;1.70;1.30;;;;;;;14.13;49.55;99454.41;683229;29;1281;-80
2023/04/24 00:49:13;;;;;;;1.50;1.20;;;;;;;14.04;49.75;99441.34;677870;29;1118;-81
2023/04/24 00:49:33;;;;;;;3.10;1.40;;;;;;;14.09;49.87;99457.91;680665;29;895;-81
2023/04/24 00:49:54;;;;;;;2.70;1.40;;;;;;;14.03;49.60;99453.59;680668;29;1107;-81
2023/04/24 00:50:16;;;;;;;1.55;1.40;;;;;;;14.03;50.02;99450.09;685764;28;1137;-79
2023/04/24 00:50:38;;;;;;;1.40;1.30;;;;;;;14.04;49.84;99457.06;683161;28;1165;-80
2023/04/24 00:50:59;;;;;;;1.80;1.40;;;;;;;13.95;49.90;99443.16;682993;28;1103;-80
2023/04/24 00:51:20;;;;;;;1.87;1.40;;;;;;;13.93;49.84;99452.78;680644;29;1177;-80
2023/04/24 00:51:45;;;;;;;1.98;1.50;;;;;;;13.97;50.07;99457.09;680543;29;1261;-81
2023/04/24 00:52:08;;;;;;;2.20;1.40;;;;;;;13.87;50.13;99452.81;675378;29;1133;-80
2023/04/24 00:52:30;;;;;;;2.67;1.35;;;;;;;13.83;50.29;99448.50;683131;28;1274;-80
2023/04/24 00:52:52;;;;;;;1.92;1.30;;;;;;;13.85;50.13;99457.22;685932;28;1233;-79
2023/04/24 00:53:13;;;;;;;1.90;1.30;;;;;;;13.74;50.47;99441.53;680510;29;1344;-79
2023/04/24 00:53:33;;;;;;;1.40;1.30;;;;;;;13.75;50.31;99458.16;678002;29;1128;-80
2023/04/24 00:54:01;;;;;;;1.30;1.20;;;;;;;13.62;50.42;99445.13;683331;29;1106;-79
2023/04/24 00:54:21;;;;;;;1.30;1.20;;;;;;;13.71;50.81;99465.16;680712;29;1002;-80
2023/04/24 00:54:42;;;;;;;1.70;1.30;;;;;;;13.71;50.47;99462.56;680702;29;1145;-80
2023/04/24 00:55:03;;;;;;;2.50;1.60;;;;;;;13.69;50.68;99465.16;683100;28;1088;-80
2023/04/24 00:55:24;;;;;;;2.60;1.60;;;;;;;13.63;50.48;99446.84;680465;29;1219;-78
2023/04/24 00:55:45;;;;;;;2.13;1.50;;;;;;;13.64;50.72;99472.19;675296;29;1299;-80
2023/04/24 00:56:07;;;;;;;1.45;1.30;;;;;;;13.65;50.62;99468.69;675035;29;1122;-80
2023/04/24 00:56:28;;;;;;;1.85;1.30;;;;;;;13.68;50.36;99454.69;675115;29;1135;-80
2023/04/24 00:56:51;;;;;;;2.15;1.30;;;;;;;13.67;50.27;99459.06;677927;29;954;-80
2023/04/24 00:57:14;;;;;;;2.50;1.40;;;;;;;13.62;50.00;99473.94;677731;29;1135;-81
2023/04/24 00:57:35;;;;;;;1.63;1.40;;;;;;;13.70;49.84;99456.41;678008;29;1367;-81
2023/04/24 00:57:56;;;;;;;2.20;1.60;;;;;;;13.79;49.88;99462.50;677778;29;1123;-81
2023/04/24 00:58:17;;;;;;;2.58;1.52;;;;;;;13.77;49.44;99448.53;680547;29;1312;-80
2023/04/24 00:58:38;;;;;;;3.50;1.60;;;;;;;13.75;49.80;99447.69;680491;28;1162;-80
2023/04/24 00:58:59;;;;;;;3.10;1.50;;;;;;;13.83;49.32;99459.84;682872;28;1214;-80
2023/04/24 00:59:19;;;;;;;3.00;1.67;;;;;;;13.69;49.75;99441.56;683296;29;1250;-80
2023/04/24 00:59:42;;;;;;;1.90;1.50;;;;;;;13.75;49.53;99456.38;677997;29;796;-80
2023/04/24 01:00:05;;;;;;;2.13;1.50;;;;;;;13.69;49.36;99438.97;677819;29;1080;-79
2023/04/24 01:00:26;;;;;;;1.70;1.38;;;;;;;13.77;49.48;99452.00;677821;29;1151;-79
2023/04/24 01:00:50;;;;;;;1.70;1.40;;;;;;;13.73;49.51;99442.44;688634;28;1235;-80
2023/04/24 01:01:11;;;;;;;1.50;1.40;;;;;;;13.76;49.70;99452.88;683052;28;1284;-79
2023/04/24 01:01:32;;;;;;;1.52;1.42;;;;;;;13.64;49.75;99438.09;677949;28;1238;-79
2023/04/24 01:01:53;;;;;;;1.60;1.50;;;;;;;13.73;49.72;99465.13;677857;29;1230;-81
2023/04/24 01:02:15;;;;;;;1.70;1.60;;;;;;;13.72;49.69;99445.94;683083;29;1263;-80
2023/04/24 01:02:39;;;;;;;1.90;1.75;;;;;;;13.71;49.45;99452.91;680630;29;1040;-80
2023/04/24 01:03:04;;;;;;;2.60;1.80;;;;;;;13.66;49.61;99441.56;677704;29;1185;-81
2023/04/24 01:03:28;;;;;;;2.70;1.77;;;;;;;13.66;49.82;99440.72;680504;29;1919;-80
2023/04/24 01:03:50;;;;;;;2.53;1.42;;;;;;;13.65;49.69;99445.09;685907;28;1019;-82
2023/04/24 01:04:12;;;;;;;2.72;1.40;;;;;;;13.65;49.62;99439.00;683052;29;1335;-79
2023/04/24 01:04:32;;;;;;;2.65;1.40;;;;;;;13.66;49.98;99452.06;677939;28;1353;-80
2023/04/24 01:04:53;;;;;;;1.42;1.33;;;;;;;13.57;49.67;99439.00;677899;29;1267;-79
2023/04/24 01:05:15;;;;;;;1.40;1.30;;;;;;;13.54;49.79;99439.03;683180;28;1227;-79
2023/04/24 01:05:36;;;;;;;1.45;1.35;;;;;;;13.45;50.04;99436.47;683139;28;1325;-79
2023/04/24 01:05:57;;;;;;;1.48;1.38;;;;;;;13.47;50.31;99446.09;688373;28;1016;-80
2023/04/24 01:06:19;;;;;;;1.60;1.50;;;;;;;13.41;50.37;99449.59;683110;28;1228;-80
2023/04/24 01:06:42;;;;;;;1.75;1.65;;;;;;;13.51;50.29;99441.69;677932;28;1344;-80
2023/04/24 01:07:04;;;;;;;1.70;1.60;;;;;;;13.47;50.42;99466.16;682797;28;1263;-81
2023/04/24 01:07:59;;;;;;;1.55;1.45;;;;;;;13.57;49.94;99467.84;682824;28;1069;-80
2023/04/24 01:08:24;;;;;;;2.30;1.50;;;;;;;13.57;49.96;99462.59;680437;29;1243;-79
2023/04/24 01:08:47;;;;;;;2.00;1.40;;;;;;;13.49;50.31;99432.94;685964;28;804;-80
2023/04/24 01:09:09;;;;;;;1.95;1.50;;;;;;;13.55;49.84;99459.13;682889;28;1431;-80
2023/04/24 01:09:31;;;;;;;1.73;1.52;;;;;;;13.43;50.00;99441.72;685975;28;1208;-80
2023/04/24 01:09:53;;;;;;;2.10;1.60;;;;;;;13.46;50.15;99454.78;685831;28;1045;-80
2023/04/24 01:10:14;;;;;;;1.70;1.40;;;;;;;13.56;49.85;99447.75;685736;28;1156;-81
2023/04/24 01:10:37;;;;;;;1.58;1.30;;;;;;;13.58;49.68;99459.09;685878;28;799;-80
2023/04/24 01:10:58;;;;;;;1.67;1.50;;;;;;;13.60;49.95;99461.72;680396;29;1308;-80
2023/04/24 01:11:18;;;;;;;1.70;1.50;;;;;;;13.58;50.04;99474.81;680670;29;1189;-80
2023/04/24 01:11:41;;;;;;;1.70;1.60;;;;;;;13.45;49.61;99444.34;680537;29;1419;-80
2023/04/24 01:12:02;;;;;;;1.70;1.60;;;;;;;13.53;49.94;99450.41;680261;28;1484;-80
2023/04/24 01:12:23;;;;;;;1.90;1.70;;;;;;;13.52;49.72;99453.91;680524;28;1292;-80
2023/04/24 01:12:44;;;;;;;2.28;1.70;;;;;;;13.57;49.87;99467.84;680448;29;1206;-80
2023/04/24 01:13:10;;;;;;;2.42;1.60;;;;;;;13.59;49.67;99455.63;683056;28;1194;-80
2023/04/24 01:13:32;;;;;;;2.28;1.50;;;;;;;13.53;49.76;99451.25;683146;28;1401;-80
2023/04/24 01:13:52;;;;;;;2.88;1.40;;;;;;;13.48;49.64;99457.41;688505;28;1204;-79
2023/04/24 01:14:13;;;;;;;2.63;1.40;;;;;;;13.47;50.03;99458.31;685783;28;1152;-81
2023/04/24 01:14:34;;;;;;;2.30;1.50;;;;;;;13.49;49.97;99464.41;680633;28;1252;-80
2023/04/24 01:14:56;;;;;;;1.97;1.53;;;;;;;13.51;49.91;99478.38;683126;28;1159;-80
2023/04/24 01:15:17;;;;;;;2.50;1.70;;;;;;;13.42;49.86;99459.19;683225;29;1100;-80
2023/04/24 01:15:38;;;;;;;2.50;1.80;;;;;;;13.46;49.71;99448.69;685635;28;1598;-79
2023/04/24 01:16:00;;;;;;;2.17;1.70;;;;;;;13.46;49.84;99461.81;683086;28;1267;-81
2023/04/24 01:16:22;;;;;;;1.80;1.60;;;;;;;13.41;50.15;99454.81;685946;28;1202;-82
2023/04/24 01:16:43;;;;;;;2.42;1.60;;;;;;;13.45;49.85;99458.28;683268;29;832;-81
2023/04/24 01:17:03;;;;;;;2.40;1.60;;;;;;;13.52;50.07;99467.03;680434;29;1120;-80
2023/04/24 01:17:24;;;;;;;2.55;1.65;;;;;;;13.40;50.00;99454.84;680521;29;1186;-80
2023/04/24 01:17:45;;;;;;;2.03;1.70;;;;;;;13.47;49.94;99453.06;683517;28;1217;-81
2023/04/24 01:18:05;;;;;;;2.30;1.70;;;;;;;13.45;49.88;99455.69;683250;28;1214;-81
2023/04/24 01:18:27;;;;;;;2.15;1.75;;;;;;;13.44;49.71;99459.19;680673;29;1187;-79
2023/04/24 01:18:48;;;;;;;1.65;1.55;;;;;;;13.44;49.69;99453.94;691460;28;1270;-82
2023/04/24 01:19:12;;;;;;;1.67;1.58;;;;;;;13.45;49.58;99450.44;685995;28;1032;-80
2023/04/24 01:19:32;;;;;;;1.70;1.60;;;;;;;13.48;49.70;99460.03;686394;28;1005;-79
2023/04/24 01:19:53;;;;;;;1.73;1.63;;;;;;;13.41;49.83;99453.97;683590;28;1357;-80
2023/04/24 01:20:15;;;;;;;1.60;1.50;;;;;;;13.47;50.08;99477.53;680662;29;1193;-81
2023/04/24 01:20:39;;;;;;;1.50;1.40;;;;;;;13.29;49.91;99436.56;683682;28;1137;-80
2023/04/24 01:21:04;;;;;;;1.73;1.52;;;;;;;13.36;50.00;99459.22;683488;28;1456;-81
2023/04/24 01:21:30;;;;;;;2.10;1.80;;;;;;;13.37;50.02;99458.34;680957;28;1446;-81
2023/04/24 01:21:54;;;;;;;3.00;1.70;;;;;;;13.29;50.23;99444.41;686318;28;1169;-80
2023/04/24 01:22:16;;;;;;;2.55;1.60;;;;;;;13.26;50.15;99452.28;680715;29;1123;-81
2023/04/24 01:22:36;;;;;;;4.22;1.70;;;;;;;13.30;50.13;99456.63;683583;28;1133;-80
2023/04/24 01:22:57;;;;;;;4.20;1.73;;;;;;;13.20;50.24;99452.31;681012;29;1121;-80
2023/04/24 01:23:37;;;;;;;4.40;1.80;;;;;;;13.38;50.08;99470.56;680907;29;1244;-80
2023/04/24 01:23:58;;;;;;;2.30;1.80;;;;;;;13.22;50.41;99440.06;678062;29;2007;-80
2023/04/24 01:24:19;;;;;;;2.30;1.80;;;;;;;13.31;50.43;99461.00;678344;29;1112;-80
2023/04/24 01:24:41;;;;;;;2.45;1.80;;;;;;;13.34;49.97;99463.59;683451;28;1245;-78
2023/04/24 01:25:03;;;;;;;2.15;1.63;;;;;;;13.21;50.01;99446.19;682999;28;1743;-80
2023/04/24 01:25:25;;;;;;;2.60;1.63;;;;;;;13.27;50.28;99443.56;686116;28;1113;-80
2023/04/24 01:25:46;;;;;;;2.00;1.70;;;;;;;13.29;50.03;99454.91;683463;29;868;-79
2023/04/24 01:26:07;;;;;;;2.10;1.70;;;;;;;13.30;50.11;99461.88;680474;28;1213;-78
2023/04/24 01:26:27;;;;;;;1.98;1.80;;;;;;;13.21;50.01;99462.78;680703;29;986;-79
2023/04/24 01:26:48;;;;;;;1.87;1.77;;;;;;;13.24;50.13;99457.53;680513;29;1038;-82
2023/04/24 01:27:10;;;;;;;1.80;1.70;;;;;;;13.20;50.35;99457.56;677819;29;1105;-81
2023/04/24 01:27:31;;;;;;;1.90;1.80;;;;;;;13.20;50.25;99454.94;680275;29;1243;-80
2023/04/24 01:28:01;;;;;;;1.70;1.60;;;;;;;13.30;50.25;99464.50;685950;28;1130;-80
2023/04/24 01:28:22;;;;;;;1.70;1.60;;;;;;;13.25;50.01;99461.91;680474;28;1294;-80
2023/04/24 01:28:43;;;;;;;1.90;1.70;;;;;;;13.27;50.06;99469.75;677979;29;1298;-80
2023/04/24 01:29:03;;;;;;;2.10;1.80;;;;;;;13.32;50.14;99465.34;683024;28;1163;-80
2023/04/24 01:29:24;;;;;;;2.00;1.73;;;;;;;13.30;50.02;99469.72;685851;28;1167;-81
2023/04/24 01:29:45;;;;;;;2.10;1.70;;;;;;;13.26;49.98;99455.78;685933;28;804;-80
2023/04/24 01:30:07;;;;;;;1.90;1.70;;;;;;;13.27;49.95;99454.03;683028;29;1296;-80
2023/04/24 01:30:28;;;;;;;2.10;1.90;;;;;;;13.16;49.97;99449.69;685804;28;992;-79
2023/04/24 01:30:49;;;;;;;2.10;1.90;;;;;;;13.13;50.28;99447.09;685912;28;1027;-78
2023/04/24 01:31:10;;;;;;;1.95;1.75;;;;;;;13.12;50.57;99450.59;680373;29;1168;-80
2023/04/24 01:31:31;;;;;;;1.80;1.60;;;;;;;13.14;50.12;99453.19;677968;29;1164;-80
2023/04/24 01:31:52;;;;;;;1.80;1.60;;;;;;;13.14;50.33;99459.31;683128;28;1317;-79
2023/04/24 01:32:13;;;;;;;2.28;1.73;;;;;;;13.19;50.45;99461.91;683091;28;1243;-79
2023/04/24 01:32:36;;;;;;;2.85;1.80;;;;;;;13.12;50.38;99461.06;680510;29;1096;-80
2023/04/24 01:32:58;;;;;;;2.95;1.80;;;;;;;13.21;50.55;99464.53;680537;29;1096;-80
2023/04/24 01:33:21;;;;;;;3.08;1.70;;;;;;;13.11;50.36;99459.34;683237;28;931;-81
2023/04/24 01:33:42;;;;;;;2.70;1.60;;;;;;;13.07;50.62;99462.81;683156;29;1111;-79
2023/04/24 01:34:03;;;;;;;2.72;1.60;;;;;;;13.08;50.70;99456.72;680226;28;1253;-80
2023/04/24 01:34:25;;;;;;;1.90;1.50;;;;;;;13.04;50.38;99455.00;675407;29;1049;-79
2023/04/24 01:34:46;;;;;;;2.00;1.80;;;;;;;13.11;50.82;99480.28;675477;29;1268;-80
2023/04/24 01:35:07;;;;;;;2.17;1.98;;;;;;;13.09;50.61;99461.06;677617;29;1327;-79
2023/04/24 01:35:28;;;;;;;2.25;2.00;;;;;;;13.08;50.64;99469.81;680444;29;1130;-79
2023/04/24 01:35:49;;;;;;;2.17;1.73;;;;;;;13.09;50.56;99463.69;683193;29;1072;-79
2023/04/24 01:36:11;;;;;;;2.63;1.60;;;;;;;12.98;50.81;99455.84;683054;29;1079;-80
2023/04/24 01:36:32;;;;;;;2.15;1.60;;;;;;;12.98;51.02;99457.63;680403;29;1229;-79
2023/04/24 01:36:54;;;;;;;2.20;1.75;;;;;;;13.00;50.70;99463.72;675110;29;1039;-79
2023/04/24 01:37:15;;;;;;;2.45;1.83;;;;;;;13.05;50.75;99468.94;680409;28;1170;-79
2023/04/24 01:37:39;;;;;;;2.63;1.90;;;;;;;13.04;50.98;99467.19;680544;29;954;-80
2023/04/24 01:38:00;;;;;;;2.00;1.80;;;;;;;12.98;51.04;99462.88;682801;28;1325;-79
2023/04/24 01:38:22;;;;;;;1.73;1.63;;;;;;;12.95;51.16;99447.16;680551;29;1089;-79
2023/04/24 01:38:43;;;;;;;1.60;1.50;;;;;;;12.97;50.77;99455.88;677889;29;1197;-79
2023/04/24 01:39:05;;;;;;;1.70;1.60;;;;;;;12.94;50.92;99450.63;677569;29;1025;-80
2023/04/24 01:39:28;;;;;;;1.80;1.70;;;;;;;12.92;51.31;99452.38;680594;29;1002;-80
2023/04/24 01:39:48;;;;;;;2.00;1.80;;;;;;;12.92;51.08;99455.00;683084;29;1163;-80
2023/04/24 01:40:10;;;;;;;2.87;1.80;;;;;;;12.93;51.26;99469.81;680407;29;1010;-81
2023/04/24 01:40:31;;;;;;;2.70;1.70;;;;;;;12.85;51.32;99447.16;683062;28;1024;-80
2023/04/24 01:40:52;;;;;;;3.00;1.77;;;;;;;12.88;50.93;99456.75;683201;28;1240;-80
2023/04/24 01:41:13;;;;;;;2.20;1.73;;;;;;;12.91;51.21;99456.72;683026;28;993;-80
2023/04/24 01:41:34;;;;;;;2.47;1.80;;;;;;;12.92;51.41;99458.50;683190;28;1025;-80
2023/04/24 01:41:56;;;;;;;1.90;1.70;;;;;;;12.94;51.36;99466.34;683152;28;1061;-80
2023/04/24 01:42:16;;;;;;;3.20;1.73;;;;;;;12.94;51.12;99455.88;680517;29;993;-81
2023/04/24 01:42:37;;;;;;;2.92;1.80;;;;;;;12.99;51.31;99459.38;683139;28;1045;-80
2023/04/24 01:42:59;;;;;;;3.15;1.90;;;;;;;12.95;51.32;99473.31;677716;29;1370;-80
2023/04/24 01:43:20;;;;;;;3.20;2.00;;;;;;;13.03;51.13;99463.69;680526;29;1172;-81
2023/04/24 01:43:40;;;;;;;2.92;1.95;;;;;;;12.95;51.42;99468.09;680404;28;1913;-81
2023/04/24 01:44:02;;;;;;;2.15;1.95;;;;;;;12.97;51.20;99453.28;682913;29;1058;-79
2023/04/24 01:44:22;;;;;;;2.20;1.90;;;;;;;13.04;51.26;99456.72;680571;29;1111;-81